Time;durP1;ratioP1;P1;durP2;ratioP2;P2;SDS_P1;SDS_P2;PMS_P1;PMS_P2;Temp;Humidity;BMP_temperature;BMP_pressure;BME280_temperature;BME280_humidity;BME280_pressure;Samples;Min_cycle;Max_cycle;Signal;HPM_P1;HPM_P2
2022/04/22 00:01:42;;;;;;;16.13;9.50;;;12.60;64.50;;;;;;5020826;28;20299;-77
2022/04/22 00:04:08;;;;;;;13.45;9.07;;;12.50;64.60;;;;;;5023768;28;20033;-77
2022/04/22 00:06:33;;;;;;;14.00;9.00;;;12.60;64.60;;;;;;5022655;28;20052;-77
2022/04/22 00:08:59;;;;;;;12.57;9.13;;;12.60;64.40;;;;;;5015683;28;20434;-77
2022/04/22 00:11:31;;;;;;;13.63;8.45;;;12.60;64.30;;;;;;5018969;28;20061;-77
2022/04/22 00:14:01;;;;;;;13.75;8.57;;;12.60;63.90;;;;;;5034448;28;20440;-75
2022/04/22 00:16:28;;;;;;;12.75;8.85;;;12.70;63.90;;;;;;5014889;28;20037;-75
2022/04/22 00:18:55;;;;;;;13.07;8.43;;;12.70;63.70;;;;;;5017484;28;20401;-76
2022/04/22 00:21:20;;;;;;;11.68;7.95;;;12.70;63.60;;;;;;5018980;28;21681;-76
2022/04/22 00:23:47;;;;;;;15.63;8.60;;;12.80;63.60;;;;;;5020682;28;20506;-77
2022/04/22 00:26:12;;;;;;;13.23;8.48;;;12.70;63.40;;;;;;5021315;28;20037;-76
2022/04/22 00:28:38;;;;;;;10.88;7.85;;;12.80;63.20;;;;;;5020123;28;20653;-77
2022/04/22 00:31:04;;;;;;;13.70;8.00;;;12.80;63.30;;;;;;5018458;28;20090;-77
2022/04/22 00:33:29;;;;;;;13.07;7.75;;;12.80;63.10;;;;;;5019671;28;20400;-77
2022/04/22 00:35:55;;;;;;;15.15;7.90;;;12.90;62.70;;;;;;5016934;28;20029;-76
2022/04/22 00:38:21;;;;;;;13.20;7.85;;;13.00;62.50;;;;;;5012047;28;20069;-77
2022/04/22 00:40:46;;;;;;;13.02;7.38;;;13.00;62.50;;;;;;5022881;28;20125;-76
2022/04/22 00:43:21;;;;;;;11.63;8.00;;;12.90;62.50;;;;;;5020234;28;20041;-75
2022/04/22 00:45:47;;;;;;;13.43;7.43;;;12.90;62.70;;;;;;5013566;28;20038;-76
2022/04/22 00:48:14;;;;;;;10.98;8.27;;;12.90;62.70;;;;;;5020782;28;20040;-76
2022/04/22 00:50:40;;;;;;;11.18;7.80;;;12.90;62.80;;;;;;5019739;28;20044;-75
2022/04/22 00:53:07;;;;;;;12.00;7.90;;;12.90;62.70;;;;;;5020009;28;20436;-76
2022/04/22 00:55:35;;;;;;;16.25;8.05;;;12.90;62.90;;;;;;5011259;28;20037;-77
2022/04/22 00:58:02;;;;;;;15.35;8.40;;;12.90;62.80;;;;;;5013995;28;20035;-75
2022/04/22 01:00:28;;;;;;;12.05;7.55;;;12.90;62.80;;;;;;5022418;28;20041;-76
2022/04/22 01:02:54;;;;;;;13.10;7.93;;;12.90;62.70;;;;;;5018551;28;20041;-76
2022/04/22 01:10:49;;;;;;;11.77;7.43;;;12.90;62.30;;;;;;5017742;28;20051;-77
2022/04/22 01:13:16;;;;;;;11.95;7.82;;;12.90;62.10;;;;;;5015245;28;20444;-75
2022/04/22 01:15:43;;;;;;;12.80;7.68;;;12.90;62.00;;;;;;5025241;28;20033;-75
2022/04/22 01:18:09;;;;;;;11.93;8.30;;;13.00;61.50;;;;;;5016515;28;20431;-75
2022/04/22 01:20:35;;;;;;;11.65;7.57;;;13.00;61.50;;;;;;5018901;28;20048;-76
2022/04/22 01:23:00;;;;;;;11.43;7.38;;;12.90;61.50;;;;;;5018473;28;20469;-76
2022/04/22 01:25:26;;;;;;;11.73;7.60;;;12.90;61.50;;;;;;5020405;28;20042;-77
2022/04/22 01:27:52;;;;;;;9.75;7.90;;;12.80;61.60;;;;;;5022345;28;20052;-76
2022/04/22 01:30:22;;;;;;;11.63;7.60;;;12.70;61.60;;;;;;5019369;28;20054;-76
2022/04/22 01:32:50;;;;;;;12.85;8.00;;;12.70;61.80;;;;;;5019251;28;20037;-75
2022/04/22 01:35:19;;;;;;;12.35;7.72;;;12.60;61.90;;;;;;5023799;28;20061;-77
2022/04/22 01:37:45;;;;;;;12.80;8.40;;;12.60;62.10;;;;;;5025550;28;20071;-78
2022/04/22 01:40:12;;;;;;;12.63;7.45;;;12.60;62.30;;;;;;5023063;28;20244;-76
2022/04/22 01:42:37;;;;;;;12.02;7.90;;;12.50;62.80;;;;;;5024506;28;20042;-77
2022/04/22 01:45:05;;;;;;;12.27;7.60;;;12.40;62.90;;;;;;5020128;28;20508;-74
2022/04/22 01:47:30;;;;;;;13.95;7.60;;;12.30;63.30;;;;;;5026257;28;20064;-77
2022/04/22 01:49:56;;;;;;;12.18;8.02;;;12.10;63.40;;;;;;5023087;28;20132;-77
2022/04/22 01:52:23;;;;;;;14.07;7.93;;;12.10;63.40;;;;;;5022091;28;20116;-77
2022/04/22 01:54:53;;;;;;;12.55;7.88;;;12.00;63.80;;;;;;5023704;28;20045;-75
2022/04/22 01:57:20;;;;;;;12.15;8.02;;;11.90;64.10;;;;;;5025150;28;20033;-76
2022/04/22 01:59:46;;;;;;;11.55;7.13;;;11.80;64.50;;;;;;5022460;28;20050;-76
2022/04/22 02:02:13;;;;;;;10.40;7.40;;;11.80;64.30;;;;;;5019456;28;20113;-76
2022/04/22 02:04:39;;;;;;;11.52;7.30;;;11.70;64.50;;;;;;5018020;28;20049;-76
2022/04/22 02:07:05;;;;;;;10.90;7.10;;;11.60;64.60;;;;;;5018710;28;20045;-76
2022/04/22 02:09:31;;;;;;;12.57;7.03;;;11.70;64.50;;;;;;5030809;28;20049;-76
2022/04/22 02:11:56;;;;;;;11.10;7.45;;;11.60;64.80;;;;;;5025773;28;20037;-77
2022/04/22 02:14:22;;;;;;;14.90;8.15;;;11.50;65.20;;;;;;5017198;28;20104;-76
2022/04/22 02:16:49;;;;;;;14.02;7.80;;;11.40;65.50;;;;;;5022866;28;20041;-77
2022/04/22 02:19:14;;;;;;;11.43;7.55;;;11.40;65.50;;;;;;5020758;28;20034;-76
2022/04/22 02:21:41;;;;;;;13.23;7.75;;;11.40;65.70;;;;;;5023321;28;20132;-77
2022/04/22 02:24:07;;;;;;;13.00;7.70;;;11.30;66.00;;;;;;5020060;28;20461;-76
2022/04/22 02:28:31;;;;;;;14.18;8.30;;;11.20;66.10;;;;;;5022523;28;20111;-76
2022/04/22 02:29:18;;;;;;;12.32;8.10;;;11.20;66.40;;;;;;5020908;28;20107;-75
2022/04/22 02:31:44;;;;;;;13.93;7.88;;;11.10;66.70;;;;;;5022911;28;20033;-77
2022/04/22 02:34:10;;;;;;;11.25;7.60;;;11.10;67.00;;;;;;5022220;28;20107;-76
2022/04/22 02:36:35;;;;;;;12.73;8.23;;;11.00;67.20;;;;;;5038005;28;20037;-76
2022/04/22 02:39:01;;;;;;;12.10;7.97;;;11.00;67.30;;;;;;5020788;28;20835;-76
2022/04/22 02:46:55;;;;;;;13.23;8.25;;;10.80;68.00;;;;;;5020718;28;20040;-76
2022/04/22 02:49:21;;;;;;;11.82;8.25;;;10.80;68.30;;;;;;5021141;28;20045;-76
2022/04/22 02:51:47;;;;;;;14.45;8.20;;;10.80;68.40;;;;;;5016959;28;20033;-77
2022/04/22 02:54:12;;;;;;;13.23;8.07;;;10.80;68.30;;;;;;5015503;28;20102;-77
2022/04/22 02:56:38;;;;;;;13.32;9.05;;;10.70;68.60;;;;;;5014796;28;20485;-76
2022/04/22 02:59:05;;;;;;;12.30;7.78;;;10.70;68.90;;;;;;5018746;28;20132;-77
2022/04/22 03:01:31;;;;;;;13.80;9.50;;;10.60;68.80;;;;;;5013290;28;20518;-77
2022/04/22 03:03:57;;;;;;;12.98;9.07;;;10.70;69.10;;;;;;5018401;28;20033;-76
2022/04/22 03:06:26;;;;;;;13.45;10.13;;;10.60;69.40;;;;;;5022529;28;20033;-76
2022/04/22 03:08:54;;;;;;;14.18;10.23;;;10.60;69.60;;;;;;5019550;28;20404;-77
2022/04/22 03:11:21;;;;;;;15.50;10.38;;;10.60;69.80;;;;;;5017581;28;20477;-77
2022/04/22 03:13:49;;;;;;;14.35;9.43;;;10.50;70.20;;;;;;5023691;28;20449;-77
2022/04/22 03:16:17;;;;;;;14.15;10.25;;;10.50;70.20;;;;;;5009148;28;20436;-76
2022/04/22 03:18:43;;;;;;;16.02;10.82;;;10.40;70.70;;;;;;5019667;28;20033;-76
2022/04/22 03:21:08;;;;;;;14.75;10.48;;;10.40;70.90;;;;;;5016883;28;20550;-76
2022/04/22 03:23:34;;;;;;;15.35;10.52;;;10.40;70.90;;;;;;5018833;28;20049;-74
2022/04/22 03:26:00;;;;;;;14.57;11.18;;;10.30;71.00;;;;;;5016796;28;20064;-76
2022/04/22 03:28:26;;;;;;;17.63;11.43;;;10.30;71.50;;;;;;5014439;28;20099;-76
2022/04/22 03:30:51;;;;;;;15.75;11.45;;;10.30;71.70;;;;;;5019687;28;20527;-76
2022/04/22 03:33:18;;;;;;;18.08;12.25;;;10.20;71.70;;;;;;5021104;28;20341;-76
2022/04/22 03:35:44;;;;;;;16.38;12.18;;;10.20;72.20;;;;;;5020450;28;20117;-75
2022/04/22 03:38:14;;;;;;;17.88;12.52;;;10.20;72.30;;;;;;5017266;28;20033;-76
2022/04/22 03:40:40;;;;;;;19.17;13.40;;;10.20;72.40;;;;;;5016842;28;20544;-75
2022/04/22 03:43:06;;;;;;;15.77;12.82;;;10.20;72.40;;;;;;5020369;28;20543;-77
2022/04/22 03:45:32;;;;;;;19.15;12.63;;;10.20;72.50;;;;;;5016673;28;20120;-76
2022/04/22 03:47:59;;;;;;;17.00;13.07;;;10.10;72.70;;;;;;5017833;28;20125;-76
2022/04/22 03:50:28;;;;;;;17.42;13.32;;;10.10;73.00;;;;;;5016353;28;20061;-77
2022/04/22 03:52:54;;;;;;;18.77;13.77;;;10.10;73.10;;;;;;5013011;28;20034;-76
2022/04/22 03:55:20;;;;;;;18.73;13.32;;;10.00;73.40;;;;;;5011386;28;20056;-76
2022/04/22 04:00:32;;;;;;;18.77;13.57;;;10.00;73.70;;;;;;5020346;28;20075;-75
2022/04/22 04:02:58;;;;;;;20.25;14.90;;;10.00;73.80;;;;;;5018275;28;20140;-77
2022/04/22 04:05:23;;;;;;;19.05;14.68;;;9.90;73.80;;;;;;5018806;28;20148;-77
2022/04/22 04:07:49;;;;;;;19.55;14.45;;;9.90;74.10;;;;;;5017998;28;20034;-76
2022/04/22 04:15:58;;;;;;;18.95;14.82;;;9.80;74.60;;;;;;5016674;28;20094;-77
2022/04/22 04:18:32;;;;;;;18.38;14.50;;;9.80;74.80;;;;;;5009653;28;20095;-77
2022/04/22 04:23:45;;;;;;;20.20;16.17;;;9.70;75.10;;;;;;5015931;28;20099;-75
2022/04/22 04:26:12;;;;;;;21.33;15.48;;;9.70;75.40;;;;;;5014268;28;20044;-75
2022/04/22 04:28:39;;;;;;;19.48;15.45;;;9.70;75.50;;;;;;5017429;28;20041;-76
2022/04/22 04:31:11;;;;;;;19.38;16.73;;;9.70;75.50;;;;;;5009622;28;20034;-75
2022/04/22 04:33:37;;;;;;;20.73;16.20;;;9.70;75.60;;;;;;5014235;28;20053;-76
2022/04/22 04:36:04;;;;;;;20.67;15.70;;;9.60;75.90;;;;;;5013943;28;20044;-77
2022/04/22 04:38:30;;;;;;;22.58;16.35;;;9.60;75.90;;;;;;5017020;28;20038;-77
2022/04/22 04:40:56;;;;;;;20.08;16.70;;;9.60;76.10;;;;;;5017340;28;20037;-76
2022/04/22 04:43:22;;;;;;;19.63;15.88;;;9.60;76.10;;;;;;5018035;28;20045;-75
2022/04/22 04:45:50;;;;;;;21.65;16.88;;;9.60;76.30;;;;;;5018812;28;20044;-75
2022/04/22 04:48:19;;;;;;;22.73;18.00;;;9.60;76.40;;;;;;5015275;28;20548;-77
2022/04/22 04:50:51;;;;;;;23.35;18.30;;;9.50;76.70;;;;;;5022675;28;20048;-74
2022/04/22 04:53:17;;;;;;;21.20;17.05;;;9.60;76.90;;;;;;5011745;28;20038;-76
2022/04/22 04:55:44;;;;;;;22.00;18.85;;;9.50;76.90;;;;;;5017244;28;20429;-76
2022/04/22 04:58:10;;;;;;;25.65;18.67;;;9.50;77.10;;;;;;5008765;28;20370;-76
2022/04/22 05:00:36;;;;;;;21.52;18.10;;;9.50;77.30;;;;;;5009369;28;20048;-76
2022/04/22 05:03:02;;;;;;;25.63;19.67;;;9.50;77.30;;;;;;5011443;28;20040;-74
2022/04/22 05:05:28;;;;;;;24.45;18.23;;;9.50;77.40;;;;;;5014182;28;20052;-74
2022/04/22 05:07:58;;;;;;;22.48;19.05;;;9.50;77.60;;;;;;5019871;28;20073;-77
2022/04/22 05:10:27;;;;;;;23.55;19.33;;;9.50;77.70;;;;;;5018968;28;20049;-74
2022/04/22 05:12:54;;;;;;;24.40;19.65;;;9.50;77.80;;;;;;5020166;28;20122;-76
2022/04/22 05:15:22;;;;;;;24.00;19.20;;;9.60;77.70;;;;;;5009194;28;20203;-76
2022/04/22 05:17:48;;;;;;;25.73;20.13;;;9.50;77.70;;;;;;5011119;28;20492;-74
2022/04/22 05:20:17;;;;;;;26.63;20.48;;;9.50;78.00;;;;;;5013728;28;20044;-76
2022/04/22 05:22:43;;;;;;;24.38;19.48;;;9.60;77.80;;;;;;5012718;28;20499;-74
2022/04/22 05:25:12;;;;;;;24.75;20.05;;;9.60;77.70;;;;;;5018354;28;20057;-76
2022/04/22 05:27:38;;;;;;;23.20;19.33;;;9.60;77.80;;;;;;5020861;28;20144;-76
2022/04/22 05:32:50;;;;;;;25.67;19.95;;;9.60;78.10;;;;;;5019008;28;20035;-74
2022/04/22 05:35:18;;;;;;;25.33;20.77;;;9.60;78.10;;;;;;5017532;28;20165;-73
2022/04/22 05:37:56;;;;;;;27.05;20.65;;;9.70;78.00;;;;;;5028679;28;20053;-72
2022/04/22 05:40:23;;;;;;;24.92;20.42;;;9.70;77.80;;;;;;5018518;28;20095;-72
2022/04/22 05:42:51;;;;;;;26.60;20.20;;;9.80;77.70;;;;;;5022485;28;20068;-72
2022/04/22 05:45:18;;;;;;;27.27;20.95;;;9.80;77.70;;;;;;5019046;28;20114;-78
2022/04/22 05:47:44;;;;;;;24.02;21.17;;;9.90;77.60;;;;;;5020536;28;20030;-71
2022/04/22 05:50:12;;;;;;;28.20;22.42;;;9.90;77.30;;;;;;5018054;28;20052;-72
2022/04/22 05:52:39;;;;;;;26.27;20.70;;;9.90;77.50;;;;;;5020389;28;20627;-72
2022/04/22 05:55:10;;;;;;;27.25;21.98;;;10.10;77.20;;;;;;5018226;28;20119;-72
2022/04/22 05:57:36;;;;;;;29.23;21.15;;;10.10;76.90;;;;;;5019978;28;20032;-71
2022/04/22 06:00:08;;;;;;;28.05;21.52;;;10.20;76.70;;;;;;5012841;28;20045;-72
2022/04/22 06:02:34;;;;;;;28.88;21.75;;;10.20;76.50;;;;;;5038093;28;20087;-72
2022/04/22 06:05:00;;;;;;;26.42;20.95;;;10.30;76.60;;;;;;5016756;28;20040;-72
2022/04/22 06:07:25;;;;;;;23.70;20.70;;;10.20;76.70;;;;;;5013459;28;20026;-73
2022/04/22 06:12:35;;;;;;;26.90;21.27;;;10.20;76.90;;;;;;5018858;28;20468;-71
2022/04/22 06:15:02;;;;;;;26.98;22.42;;;10.30;76.90;;;;;;5016986;28;20555;-75
2022/04/22 06:17:29;;;;;;;27.38;21.77;;;10.30;77.00;;;;;;5018651;28;20034;-74
2022/04/22 06:19:56;;;;;;;25.95;20.65;;;10.50;76.70;;;;;;5017293;28;20421;-75
2022/04/22 06:22:21;;;;;;;28.85;21.27;;;10.50;76.20;;;;;;5014496;28;20042;-75
2022/04/22 06:24:47;;;;;;;28.88;21.10;;;10.50;76.10;;;;;;5015498;28;20088;-73
2022/04/22 06:27:13;;;;;;;26.65;20.80;;;10.60;75.70;;;;;;5016100;28;20203;-74
2022/04/22 06:29:38;;;;;;;26.17;20.40;;;10.70;75.90;;;;;;5014586;28;20114;-74
2022/04/22 06:32:04;;;;;;;26.48;20.92;;;10.80;75.30;;;;;;5015218;28;20117;-73
2022/04/22 06:34:31;;;;;;;26.35;21.08;;;11.00;75.00;;;;;;5018257;28;20064;-73
2022/04/22 06:36:57;;;;;;;26.88;20.17;;;11.10;74.80;;;;;;5019061;28;20041;-72
2022/04/22 06:39:23;;;;;;;25.92;20.65;;;11.10;74.80;;;;;;5012859;28;20404;-73
2022/04/22 06:47:18;;;;;;;22.52;18.23;;;11.60;73.50;;;;;;5018242;28;20130;-74
2022/04/22 06:49:43;;;;;;;27.38;19.88;;;11.70;72.80;;;;;;5018067;28;20125;-73
2022/04/22 06:52:10;;;;;;;25.95;18.70;;;11.90;72.30;;;;;;5015570;28;20041;-73
2022/04/22 06:54:36;;;;;;;27.38;19.38;;;11.80;72.80;;;;;;5018137;28;20473;-73
2022/04/22 06:57:03;;;;;;;22.25;18.38;;;11.90;72.30;;;;;;5013454;28;20477;-73
2022/04/22 06:59:29;;;;;;;22.67;18.02;;;11.80;72.20;;;;;;5015879;28;20053;-72
2022/04/22 07:01:56;;;;;;;22.45;19.83;;;12.00;72.00;;;;;;5014589;28;20040;-73
2022/04/22 07:04:22;;;;;;;22.65;18.92;;;12.10;70.90;;;;;;5014332;28;20037;-73
2022/04/22 07:06:48;;;;;;;24.88;18.40;;;12.20;70.90;;;;;;5010050;28;20085;-73
2022/04/22 07:09:14;;;;;;;25.55;18.52;;;12.20;71.10;;;;;;5014155;28;20062;-71
2022/04/22 07:11:43;;;;;;;26.30;18.20;;;12.50;69.80;;;;;;5015053;28;20037;-75
2022/04/22 07:14:10;;;;;;;20.98;17.23;;;12.60;69.70;;;;;;5026258;28;20903;-75
2022/04/22 07:16:44;;;;;;;21.98;17.45;;;12.60;69.40;;;;;;5022211;28;20033;-73
2022/04/22 07:19:10;;;;;;;22.27;18.75;;;12.20;70.80;;;;;;5016494;28;20477;-73
2022/04/22 07:21:36;;;;;;;24.10;17.80;;;12.30;71.20;;;;;;5019498;28;20041;-73
2022/04/22 07:24:02;;;;;;;22.90;18.15;;;12.60;70.30;;;;;;5017556;28;20029;-73
2022/04/22 07:26:28;;;;;;;23.08;18.25;;;13.00;69.10;;;;;;5014792;28;20118;-73
2022/04/22 07:28:57;;;;;;;22.00;17.50;;;13.20;68.10;;;;;;5013860;28;20601;-74
2022/04/22 07:31:23;;;;;;;23.65;17.70;;;13.20;67.00;;;;;;5016714;28;20056;-73
2022/04/22 07:33:49;;;;;;;21.25;16.73;;;13.20;66.80;;;;;;5013488;28;20041;-73
2022/04/22 07:36:15;;;;;;;21.45;18.25;;;13.40;67.20;;;;;;5014344;28;20038;-73
2022/04/22 07:38:41;;;;;;;21.90;16.60;;;13.60;66.10;;;;;;5012306;28;20029;-78
2022/04/22 07:41:08;;;;;;;21.80;17.77;;;13.70;65.30;;;;;;5013428;28;20123;-75
2022/04/22 07:49:05;;;;;;;26.33;17.65;;;13.70;65.30;;;;;;5020854;28;20172;-73
2022/04/22 07:51:31;;;;;;;20.60;16.55;;;14.00;64.90;;;;;;5012602;28;20037;-73
2022/04/22 07:53:57;;;;;;;22.40;16.48;;;13.80;64.60;;;;;;5008771;28;20040;-75
2022/04/22 07:56:23;;;;;;;20.42;17.13;;;13.70;65.50;;;;;;5028424;28;20120;-76
2022/04/22 07:58:49;;;;;;;20.52;16.08;;;13.90;64.60;;;;;;5015967;28;20203;-76
2022/04/22 08:01:15;;;;;;;20.23;16.38;;;13.70;64.50;;;;;;5013258;28;20037;-77
2022/04/22 08:03:41;;;;;;;21.73;17.60;;;13.70;64.60;;;;;;5014388;28;20025;-75
2022/04/22 08:06:07;;;;;;;22.55;17.45;;;13.80;64.80;;;;;;5020046;28;20044;-74
2022/04/22 08:08:33;;;;;;;21.40;16.73;;;14.10;63.60;;;;;;5016066;28;20057;-75
2022/04/22 08:10:58;;;;;;;23.10;17.77;;;14.10;63.40;;;;;;5023443;28;20050;-76
2022/04/22 08:13:26;;;;;;;20.60;17.33;;;14.00;64.60;;;;;;5020036;28;20143;-75
2022/04/22 08:15:52;;;;;;;22.52;17.08;;;13.80;65.40;;;;;;5017236;28;20076;-75
2022/04/22 08:18:17;;;;;;;21.63;17.50;;;13.80;64.30;;;;;;5017045;28;20037;-77
2022/04/22 08:20:43;;;;;;;25.85;17.98;;;13.60;66.20;;;;;;5016306;28;20050;-76
2022/04/22 08:23:08;;;;;;;24.63;18.27;;;13.60;66.10;;;;;;5021158;28;20617;-79
2022/04/22 08:25:34;;;;;;;25.80;17.40;;;14.00;64.30;;;;;;5020101;28;20450;-77
2022/04/22 08:28:02;;;;;;;21.65;17.52;;;14.30;63.70;;;;;;5021265;28;20037;-74
2022/04/22 08:30:29;;;;;;;20.73;17.40;;;14.60;62.00;;;;;;5018155;28;20485;-76
2022/04/22 08:32:55;;;;;;;20.17;17.30;;;14.70;60.80;;;;;;5015944;28;20094;-75
2022/04/22 08:35:21;;;;;;;25.52;17.75;;;14.90;61.80;;;;;;5019426;28;23527;-74
2022/04/22 08:37:46;;;;;;;22.15;18.67;;;15.10;61.30;;;;;;5021279;28;20064;-78
2022/04/22 08:40:13;;;;;;;21.55;18.10;;;15.50;60.10;;;;;;5017015;28;20077;-78
2022/04/22 08:42:41;;;;;;;21.88;17.50;;;15.80;59.20;;;;;;5026075;28;20045;-78
2022/04/22 08:45:08;;;;;;;21.25;17.88;;;15.80;58.40;;;;;;5016765;28;20045;-76
2022/04/22 08:50:21;;;;;;;20.25;17.33;;;15.70;58.10;;;;;;5020672;28;20581;-79
2022/04/22 08:53:21;;;;;;;20.45;17.27;;;15.40;58.30;;;;;;5020238;28;20050;-77
2022/04/22 08:55:50;;;;;;;20.58;17.00;;;15.00;58.90;;;;;;4982279;28;20485;-77
2022/04/22 08:58:17;;;;;;;23.77;18.30;;;15.10;59.30;;;;;;5019191;28;20697;-75
2022/04/22 09:00:44;;;;;;;21.42;18.30;;;15.60;57.70;;;;;;5020545;28;20073;-76
2022/04/22 09:03:10;;;;;;;22.38;18.35;;;15.60;57.20;;;;;;5022289;28;20034;-78
2022/04/22 09:05:36;;;;;;;19.40;16.55;;;15.90;57.40;;;;;;5026073;28;20689;-77
2022/04/22 09:08:02;;;;;;;21.02;17.15;;;16.20;56.60;;;;;;5025593;28;20037;-77
2022/04/22 09:10:27;;;;;;;22.95;17.58;;;16.20;55.10;;;;;;5022685;28;20053;-78
2022/04/22 09:12:55;;;;;;;19.90;17.33;;;15.90;55.80;;;;;;5019782;28;20091;-76
2022/04/22 09:15:23;;;;;;;22.70;17.88;;;15.40;57.80;;;;;;5024234;28;20037;-78
2022/04/22 09:17:49;;;;;;;21.35;17.38;;;15.40;58.10;;;;;;5018462;28;20041;-74
2022/04/22 09:20:15;;;;;;;23.83;17.52;;;15.10;59.10;;;;;;5020122;28;20478;-73
2022/04/22 09:22:44;;;;;;;20.35;17.40;;;15.00;59.40;;;;;;5022050;28;20121;-74
2022/04/22 09:25:10;;;;;;;23.13;19.48;;;15.20;57.80;;;;;;5020509;28;20042;-76
2022/04/22 09:27:43;;;;;;;21.55;17.48;;;15.30;57.30;;;;;;5023914;28;20498;-77
2022/04/22 09:30:11;;;;;;;21.80;17.38;;;15.60;56.80;;;;;;5019010;28;20041;-75
2022/04/22 09:32:41;;;;;;;20.98;17.30;;;15.70;56.50;;;;;;5023691;28;20029;-77
2022/04/22 09:35:10;;;;;;;23.67;18.48;;;16.00;55.30;;;;;;5022307;28;20025;-76
2022/04/22 09:43:42;;;;;;;22.98;17.85;;;15.60;57.10;;;;;;5014897;28;20733;-77
2022/04/22 09:46:27;;;;;;;21.58;17.17;;;15.50;55.80;;;;;;5020477;28;20053;-77
2022/04/22 09:48:54;;;;;;;25.63;17.70;;;15.30;56.50;;;;;;5022977;28;20045;-77
2022/04/22 09:51:28;;;;;;;23.25;19.65;;;15.40;56.80;;;;;;5021060;28;20075;-78
2022/04/22 09:54:01;;;;;;;26.10;20.17;;;15.70;56.60;;;;;;5019610;28;20033;-75
2022/04/22 09:56:28;;;;;;;23.37;19.23;;;16.30;56.10;;;;;;5023835;28;20032;-77
2022/04/22 09:58:54;;;;;;;22.52;18.60;;;17.00;54.70;;;;;;5025024;28;20061;-76
2022/04/22 10:01:20;;;;;;;23.25;18.33;;;16.60;53.00;;;;;;5020026;28;20056;-75
2022/04/22 10:03:46;;;;;;;22.25;18.85;;;16.30;54.00;;;;;;5027357;28;20052;-74
2022/04/22 10:06:12;;;;;;;24.52;19.60;;;15.90;54.60;;;;;;5022228;28;20037;-76
2022/04/22 10:08:39;;;;;;;23.70;20.23;;;15.70;56.30;;;;;;5019385;28;20608;-73
2022/04/22 10:11:06;;;;;;;23.52;20.00;;;15.90;55.10;;;;;;5013001;28;20045;-74
2022/04/22 10:13:41;;;;;;;23.55;20.98;;;15.80;55.20;;;;;;5017113;28;20480;-74
2022/04/22 10:16:11;;;;;;;22.35;19.52;;;15.50;55.30;;;;;;5016936;28;20064;-75
2022/04/22 10:18:41;;;;;;;24.45;20.67;;;15.30;56.30;;;;;;5017188;28;20781;-76
2022/04/22 10:21:08;;;;;;;23.05;20.55;;;15.70;56.50;;;;;;5018587;28;20113;-75
2022/04/22 10:23:35;;;;;;;23.85;19.95;;;16.60;54.70;;;;;;5017188;28;20040;-77
2022/04/22 10:26:03;;;;;;;21.58;19.25;;;17.30;52.80;;;;;;5013497;28;20037;-78
2022/04/22 10:28:30;;;;;;;22.63;20.20;;;17.50;51.90;;;;;;5013454;28;20030;-77
2022/04/22 10:31:00;;;;;;;21.42;19.17;;;17.80;50.10;;;;;;5013524;28;20104;-76
2022/04/22 10:33:42;;;;;;;20.80;18.70;;;18.00;49.90;;;;;;5011177;28;20078;-78
2022/04/22 10:36:15;;;;;;;22.90;20.25;;;18.10;49.80;;;;;;5014888;28;20033;-74
2022/04/22 10:38:45;;;;;;;22.10;19.48;;;18.40;50.00;;;;;;5013250;28;20061;-77
2022/04/22 10:41:18;;;;;;;22.35;20.15;;;17.70;49.40;;;;;;5012488;28;20049;-75
2022/04/22 10:49:39;;;;;;;20.17;18.05;;;18.10;48.20;;;;;;5013762;28;20053;-77
2022/04/22 10:52:20;;;;;;;21.73;19.48;;;18.20;48.00;;;;;;5013584;28;20379;-75
2022/04/22 10:54:52;;;;;;;22.00;19.80;;;18.10;48.00;;;;;;5012304;28;20049;-75
2022/04/22 10:57:21;;;;;;;22.35;20.00;;;17.60;49.90;;;;;;5013553;28;20087;-75
2022/04/22 11:00:05;;;;;;;25.55;19.95;;;18.00;49.20;;;;;;5011484;28;20045;-75
2022/04/22 11:02:34;;;;;;;20.63;18.48;;;18.20;48.80;;;;;;5011178;28;20176;-75
2022/04/22 11:05:21;;;;;;;19.00;17.10;;;18.40;48.40;;;;;;5012015;28;20080;-74
2022/04/22 11:07:55;;;;;;;20.23;18.17;;;18.10;48.40;;;;;;5027994;28;20113;-77
2022/04/22 11:10:21;;;;;;;;;;;18.40;47.40;;;;;;5013342;28;20052;-75
2022/04/22 11:12:55;;;;;;;20.15;17.63;;;17.90;46.70;;;;;;5012365;28;19986;-76
2022/04/22 11:15:43;;;;;;;20.63;18.55;;;17.80;47.70;;;;;;5025830;28;20182;-77
2022/04/22 11:18:10;;;;;;;16.27;14.57;;;17.90;48.60;;;;;;5011037;28;20100;-76
2022/04/22 11:20:37;;;;;;;16.33;13.63;;;17.20;47.10;;;;;;5010533;28;20042;-78
2022/04/22 11:23:06;;;;;;;15.10;13.13;;;16.60;48.60;;;;;;5009194;28;20041;-75
2022/04/22 11:25:34;;;;;;;16.25;14.13;;;16.90;48.90;;;;;;5011710;28;20042;-77
2022/04/22 11:28:02;;;;;;;17.77;15.07;;;17.10;49.10;;;;;;5010330;28;20068;-77
2022/04/22 11:30:30;;;;;;;17.80;15.45;;;17.50;48.80;;;;;;5010731;28;20092;-76
2022/04/22 11:33:19;;;;;;;16.77;14.98;;;17.50;48.50;;;;;;5010248;28;20046;-75
2022/04/22 11:35:49;;;;;;;16.70;13.90;;;17.40;48.40;;;;;;5012498;28;20067;-77
2022/04/22 11:38:15;;;;;;;17.00;14.02;;;17.50;47.90;;;;;;5012620;28;20041;-74
2022/04/22 11:40:44;;;;;;;16.27;14.57;;;17.10;48.80;;;;;;5023090;28;20048;-75
2022/04/22 11:43:11;;;;;;;14.27;11.10;;;17.10;48.60;;;;;;5021398;28;20045;-74
2022/04/22 11:45:41;;;;;;;15.40;12.15;;;16.60;48.80;;;;;;5022983;28;20094;-75
2022/04/22 11:48:12;;;;;;;16.05;13.90;;;16.20;50.40;;;;;;5022367;28;20033;-75
2022/04/22 11:50:43;;;;;;;15.02;13.10;;;16.50;50.10;;;;;;5021300;28;20579;-76
2022/04/22 11:53:34;;;;;;;19.80;13.95;;;16.70;50.20;;;;;;5015084;28;20033;-76
2022/04/22 11:56:04;;;;;;;17.13;13.23;;;16.40;50.40;;;;;;5017317;28;20041;-77
2022/04/22 11:58:32;;;;;;;18.25;14.18;;;16.20;51.10;;;;;;5018841;28;20041;-74
2022/04/22 12:06:40;;;;;;;;;;;15.90;51.60;;;;;;4964470;28;20138;-75
2022/04/22 12:09:06;;;;;;;14.90;12.25;;;16.30;51.40;;;;;;5023093;28;19920;-76
2022/04/22 12:11:43;;;;;;;15.52;12.98;;;16.40;51.20;;;;;;5026962;28;20148;-75
2022/04/22 12:14:22;;;;;;;17.27;14.55;;;16.60;51.20;;;;;;5020451;28;20520;-77
2022/04/22 12:16:55;;;;;;;17.67;13.52;;;16.50;51.30;;;;;;5021636;28;20113;-77
2022/04/22 12:19:21;;;;;;;15.52;13.15;;;16.20;52.00;;;;;;5014896;28;20053;-80
2022/04/22 12:21:47;;;;;;;15.70;13.35;;;16.10;52.60;;;;;;5014817;28;20052;-79
2022/04/22 12:24:16;;;;;;;19.08;15.25;;;16.30;52.10;;;;;;5022155;28;20025;-76
2022/04/22 12:26:44;;;;;;;18.17;15.27;;;16.10;52.30;;;;;;5018827;28;20501;-77
2022/04/22 12:29:20;;;;;;;17.70;15.80;;;16.20;52.70;;;;;;5016124;28;20057;-78
2022/04/22 12:31:49;;;;;;;18.35;16.05;;;16.10;52.80;;;;;;5015992;28;20037;-76
2022/04/22 12:34:30;;;;;;;18.30;16.35;;;16.30;53.10;;;;;;5014509;28;20377;-80
2022/04/22 12:37:00;;;;;;;17.63;15.13;;;16.40;52.70;;;;;;5022032;28;20152;-78
2022/04/22 12:39:39;;;;;;;17.90;15.43;;;16.60;52.10;;;;;;5018112;28;20095;-77
2022/04/22 12:42:17;;;;;;;18.42;16.42;;;16.90;51.30;;;;;;5012726;28;20431;-77
2022/04/22 12:52:07;;;;;;;18.80;16.83;;;17.10;51.10;;;;;;5015537;28;20038;-78
2022/04/22 12:52:58;;;;;;;19.42;17.42;;;17.40;51.10;;;;;;5014974;28;20695;-79
2022/04/22 12:55:23;;;;;;;19.13;17.05;;;17.10;50.70;;;;;;5019839;28;20033;-79
2022/04/22 12:57:59;;;;;;;21.60;17.73;;;17.10;51.40;;;;;;5016621;28;20037;-77
2022/04/22 13:00:25;;;;;;;19.05;16.20;;;17.30;50.70;;;;;;5015418;28;20076;-80
2022/04/22 13:02:51;;;;;;;19.90;17.65;;;17.50;50.10;;;;;;5018589;28;20033;-78
2022/04/22 13:05:22;;;;;;;21.02;17.42;;;17.40;49.50;;;;;;5015249;28;20029;-79
2022/04/22 13:07:52;;;;;;;18.60;16.70;;;17.40;50.10;;;;;;5015419;28;20449;-79
2022/04/22 13:10:22;;;;;;;17.08;15.27;;;17.10;50.10;;;;;;5019347;28;20037;-78
2022/04/22 13:12:49;;;;;;;18.58;15.77;;;16.50;50.70;;;;;;5017013;28;20037;-76
2022/04/22 13:15:19;;;;;;;17.90;15.02;;;16.30;51.10;;;;;;5024785;28;20034;-78
2022/04/22 13:17:47;;;;;;;17.05;15.25;;;16.50;50.80;;;;;;5022969;28;20045;-79
2022/04/22 13:20:15;;;;;;;18.60;14.95;;;16.90;49.90;;;;;;5016605;28;20037;-79
2022/04/22 13:22:41;;;;;;;20.35;16.38;;;17.00;49.30;;;;;;5017543;28;20119;-77
2022/04/22 13:25:10;;;;;;;17.40;15.55;;;17.10;48.80;;;;;;5013285;28;20091;-81
2022/04/22 13:27:37;;;;;;;18.73;16.27;;;17.10;49.00;;;;;;5019324;28;20091;-77
2022/04/22 13:30:04;;;;;;;18.00;16.15;;;17.20;48.80;;;;;;5010891;28;20050;-78
2022/04/22 13:32:30;;;;;;;18.88;16.88;;;17.10;49.60;;;;;;5033119;28;20746;-79
2022/04/22 13:34:55;;;;;;;18.15;16.20;;;17.20;49.30;;;;;;5016700;28;20544;-80
2022/04/22 13:37:21;;;;;;;17.45;15.45;;;17.20;49.60;;;;;;5019733;28;20051;-78
2022/04/22 13:39:47;;;;;;;18.95;16.95;;;16.90;48.90;;;;;;5021258;28;20029;-79